Time;durP1;ratioP1;P1;durP2;ratioP2;P2;SDS_P1;SDS_P2;PMS_P1;PMS_P2;Temp;Humidity;BMP_temperature;BMP_pressure;BME280_temperature;BME280_humidity;BME280_pressure;Samples;Min_cycle;Max_cycle;Signal;HPM_P1;HPM_P2
2023/09/14 00:01:00;;;;;;;5.10;0.93;;;;;;;15.08;97.55;101031.16;5049719;28;20071;-46
2023/09/14 00:03:27;;;;;;;7.22;2.30;;;;;;;15.10;97.49;101030.78;5049580;28;20795;-46
2023/09/14 00:05:54;;;;;;;5.07;1.60;;;;;;;15.08;97.51;101031.16;5045570;28;20045;-47
2023/09/14 00:08:21;;;;;;;3.90;1.80;;;;;;;15.08;97.77;101031.16;5050347;28;20406;-46
2023/09/14 00:10:55;;;;;;;5.00;1.50;;;;;;;15.06;97.81;101033.50;5046531;28;20049;-46
2023/09/14 00:13:22;;;;;;;4.53;1.23;;;;;;;15.05;98.01;101031.91;5045962;28;20124;-46
2023/09/14 00:15:49;;;;;;;4.90;1.42;;;;;;;15.03;98.01;101034.25;5052987;28;20045;-45
2023/09/14 00:18:16;;;;;;;5.55;1.73;;;;;;;14.99;98.24;101022.22;5030832;28;20567;-47
2023/09/14 00:20:43;;;;;;;9.80;1.42;;;;;;;14.97;98.10;101021.78;5021214;28;21423;-45
2023/09/14 00:23:10;;;;;;;6.18;1.83;;;;;;;14.96;98.38;101030.50;5021360;28;20048;-48
2023/09/14 00:25:37;;;;;;;8.20;2.25;;;;;;;14.95;98.23;101031.69;5022582;28;20475;-47
2023/09/14 00:28:04;;;;;;;10.90;1.65;;;;;;;14.95;98.25;101020.53;5040292;28;20041;-46
2023/09/14 00:30:31;;;;;;;8.70;2.55;;;;;;;14.93;98.13;101029.25;5053392;28;20140;-46
2023/09/14 00:32:58;;;;;;;8.68;2.33;;;;;;;14.92;98.35;101038.81;5054349;28;20045;-47
2023/09/14 00:35:24;;;;;;;8.38;1.80;;;;;;;14.91;98.44;101039.97;5048288;28;20045;-45
2023/09/14 00:37:51;;;;;;;9.75;2.63;;;;;;;14.90;98.56;101041.16;5047651;28;20065;-45
2023/09/14 00:40:18;;;;;;;5.32;1.33;;;;;;;14.90;98.57;101030.00;5048354;28;20049;-46
2023/09/14 00:42:47;;;;;;;11.90;2.55;;;;;;;14.91;98.48;101039.97;5040407;28;20045;-48
2023/09/14 00:45:15;;;;;;;7.75;1.98;;;;;;;14.88;98.56;101043.47;5047185;28;20057;-46
2023/09/14 00:47:50;;;;;;;4.72;1.63;;;;;;;14.85;98.56;101041.44;5050366;28;20088;-45
2023/09/14 00:50:19;;;;;;;9.45;2.20;;;;;;;14.81;98.51;101037.78;5044939;28;20057;-47
2023/09/14 00:52:55;;;;;;;5.53;1.63;;;;;;;14.76;98.61;101035.28;5051400;28;20087;-46
2023/09/14 00:55:24;;;;;;;5.75;2.00;;;;;;;14.73;98.74;101036.00;5043683;28;20484;-46
2023/09/14 00:57:52;;;;;;;12.73;4.15;;;;;;;14.70;98.72;101039.53;5051608;28;20570;-46
2023/09/14 01:00:20;;;;;;;11.38;2.45;;;;;;;14.64;99.15;101030.63;5052371;28;20045;-46
2023/09/14 01:02:49;;;;;;;6.68;1.80;;;;;;;14.62;99.09;101029.41;5025236;28;20137;-46
2023/09/14 01:05:17;;;;;;;7.88;2.50;;;;;;;14.60;99.02;101026.19;5008243;28;20077;-46
2023/09/14 01:07:44;;;;;;;9.85;2.17;;;;;;;14.59;99.22;101030.13;5032060;28;20662;-46
2023/09/14 01:10:12;;;;;;;12.02;2.97;;;;;;;14.57;99.24;101033.28;5031635;28;20073;-46
2023/09/14 01:12:39;;;;;;;10.32;3.40;;;;;;;14.57;99.31;101035.25;5032809;28;20462;-46
2023/09/14 01:15:12;;;;;;;15.30;3.47;;;;;;;14.55;99.43;101026.47;5033588;28;20056;-48
2023/09/14 01:17:57;;;;;;;7.65;2.60;;;;;;;14.54;99.54;101028.44;5032984;28;20069;-46
2023/09/14 01:20:55;;;;;;;8.25;2.78;;;;;;;14.53;99.37;101026.03;5029420;28;20067;-47
2023/09/14 01:23:42;;;;;;;9.10;2.10;;;;;;;14.51;99.55;101033.91;5032077;28;20052;-46
2023/09/14 01:26:09;;;;;;;12.55;2.17;;;;;;;14.49;99.46;101025.94;5028025;28;20509;-46
2023/09/14 01:28:36;;;;;;;8.10;2.08;;;;;;;14.49;99.58;101023.16;5031207;28;20128;-48
2023/09/14 01:31:03;;;;;;;8.60;1.88;;;;;;;14.49;99.71;101025.13;5033045;28;20415;-46
2023/09/14 01:33:31;;;;;;;9.13;1.98;;;;;;;14.48;99.55;101041.03;5032981;28;20052;-46
2023/09/14 01:36:26;;;;;;;10.73;2.22;;;;;;;14.45;99.77;101029.84;5032942;28;20071;-46
2023/09/14 01:38:55;;;;;;;17.73;2.22;;;;;;;14.43;99.81;101032.97;5031307;28;20050;-46
2023/09/14 01:41:22;;;;;;;10.05;1.83;;;;;;;14.42;99.72;101024.97;5031232;28;20079;-45
2023/09/14 01:43:53;;;;;;;10.27;2.38;;;;;;;14.39;99.82;101031.28;5030415;28;20053;-46
2023/09/14 01:46:20;;;;;;;13.60;2.92;;;;;;;14.36;99.88;101035.59;5030641;28;20036;-47
2023/09/14 01:48:47;;;;;;;9.85;1.90;;;;;;;14.34;99.92;101024.03;5030415;28;20063;-46
2023/09/14 01:51:14;;;;;;;9.13;2.25;;;;;;;14.33;100.00;101019.63;5027955;28;20144;-46
2023/09/14 01:53:41;;;;;;;9.65;2.00;;;;;;;14.33;100.00;101014.03;5031247;28;20100;-47
2023/09/14 01:56:08;;;;;;;10.43;2.25;;;;;;;14.33;100.00;101014.03;5030445;28;20095;-46
2023/09/14 01:58:35;;;;;;;12.32;2.00;;;;;;;14.34;100.00;101028.78;5029804;28;20077;-50
2023/09/14 02:01:02;;;;;;;19.60;4.47;;;;;;;14.34;100.00;101024.03;5031384;28;20427;-46
2023/09/14 02:03:29;;;;;;;11.43;2.20;;;;;;;14.34;100.00;101039.91;5041855;28;20037;-47
2023/09/14 02:05:58;;;;;;;12.77;2.58;;;;;;;14.34;100.00;101032.38;5048186;28;20045;-51
2023/09/14 02:08:25;;;;;;;19.75;3.13;;;;;;;14.32;100.00;101031.91;5045725;28;20794;-46
2023/09/14 02:10:52;;;;;;;12.85;1.98;;;;;;;14.32;100.00;101031.91;5052194;28;20052;-47
2023/09/14 02:13:19;;;;;;;10.55;1.90;;;;;;;14.31;100.00;101027.53;5050867;28;20041;-47
2023/09/14 02:15:46;;;;;;;12.57;2.10;;;;;;;14.31;100.00;101035.03;5049766;28;20147;-45
2023/09/14 02:18:12;;;;;;;10.95;2.05;;;;;;;14.29;100.00;101026.25;5050756;28;20049;-46
2023/09/14 02:20:39;;;;;;;7.07;1.80;;;;;;;14.27;100.00;101014.66;5043208;28;20045;-51
2023/09/14 02:23:08;;;;;;;16.35;2.38;;;;;;;14.24;100.00;101019.00;5060040;28;20530;-47
2023/09/14 02:25:35;;;;;;;12.02;2.40;;;;;;;14.22;100.00;101023.28;5051991;28;20083;-46
2023/09/14 02:28:03;;;;;;;11.98;1.73;;;;;;;14.17;100.00;101029.13;5046674;28;20051;-47
2023/09/14 02:30:30;;;;;;;6.22;1.70;;;;;;;14.13;100.00;101031.84;5024970;28;20076;-46
2023/09/14 02:32:56;;;;;;;7.35;1.83;;;;;;;14.11;100.00;101041.75;5044297;28;20057;-46
2023/09/14 02:35:23;;;;;;;13.25;2.38;;;;;;;14.09;100.00;101044.06;5048648;28;20495;-50
2023/09/14 02:37:50;;;;;;;8.57;1.70;;;;;;;14.06;100.00;101053.16;5058157;28;20048;-49
2023/09/14 02:40:17;;;;;;;6.80;2.05;;;;;;;14.03;100.00;101041.56;5050264;28;20540;-48
2023/09/14 02:42:43;;;;;;;8.18;1.65;;;;;;;14.00;100.00;101047.84;5038842;28;20053;-46
2023/09/14 02:45:10;;;;;;;16.95;2.95;;;;;;;14.00;100.00;101047.84;5048596;28;20041;-46
2023/09/14 02:47:37;;;;;;;11.82;2.35;;;;;;;13.96;100.00;101046.97;5047156;28;20571;-47
2023/09/14 02:50:04;;;;;;;12.05;2.58;;;;;;;13.96;100.00;101046.97;5050964;28;20045;-46
2023/09/14 02:52:31;;;;;;;9.23;1.77;;;;;;;13.94;100.00;101049.31;5050472;28;20075;-45
2023/09/14 02:54:59;;;;;;;13.60;1.67;;;;;;;13.92;100.00;101060.00;5040913;28;20140;-47
2023/09/14 02:57:26;;;;;;;17.63;1.98;;;;;;;13.90;100.00;101053.97;5043509;28;20123;-49
2023/09/14 02:59:54;;;;;;;6.53;1.75;;;;;;;13.88;100.00;101050.72;5050326;28;20063;-46
2023/09/14 03:02:22;;;;;;;7.53;1.70;;;;;;;13.88;100.00;101055.50;5073329;22;20543;-44
2023/09/14 03:04:49;;;;;;;9.45;1.63;;;;;;;13.84;100.00;101054.59;5045413;28;20414;-44
2023/09/14 03:07:16;;;;;;;9.73;1.92;;;;;;;13.81;100.00;101045.00;5046272;28;20049;-43
2023/09/14 03:09:44;;;;;;;11.73;1.50;;;;;;;13.81;100.00;101046.97;5042035;28;20050;-43
2023/09/14 03:12:11;;;;;;;7.15;1.42;;;;;;;13.77;100.00;101046.06;5029609;28;20048;-42
2023/09/14 03:14:38;;;;;;;8.10;1.73;;;;;;;13.77;100.00;101043.28;5048125;28;20407;-43
2023/09/14 03:17:04;;;;;;;10.52;1.60;;;;;;;13.76;100.00;101050.03;5043937;28;20064;-45
2023/09/14 03:19:31;;;;;;;5.70;1.55;;;;;;;13.75;100.00;101051.19;5049346;28;20075;-43
2023/09/14 03:21:58;;;;;;;13.05;2.42;;;;;;;13.74;100.00;101044.03;5044947;28;20043;-43
2023/09/14 03:24:25;;;;;;;6.22;1.60;;;;;;;13.74;100.00;101049.59;5043071;28;20052;-44
2023/09/14 03:26:52;;;;;;;4.97;1.70;;;;;;;13.71;100.00;101045.56;5049224;28;20044;-47
2023/09/14 03:29:18;;;;;;;10.98;1.88;;;;;;;13.70;100.00;101046.69;5048222;28;20572;-44
2023/09/14 03:31:45;;;;;;;7.53;1.70;;;;;;;13.70;100.00;101049.47;5043735;28;20056;-44
2023/09/14 03:34:12;;;;;;;10.10;2.42;;;;;;;13.69;100.00;101035.91;5033915;28;20041;-45
2023/09/14 03:36:38;;;;;;;10.65;1.73;;;;;;;13.68;100.00;101046.25;5039420;28;20048;-45
2023/09/14 03:39:05;;;;;;;5.53;1.98;;;;;;;13.67;100.00;101043.81;5038437;28;20060;-48
2023/09/14 03:41:32;;;;;;;8.70;1.75;;;;;;;13.65;100.00;101046.16;5051610;28;20064;-44
2023/09/14 03:43:59;;;;;;;8.25;2.05;;;;;;;13.64;100.00;101047.31;5046373;28;20084;-45
2023/09/14 03:46:26;;;;;;;7.05;1.60;;;;;;;13.61;100.00;101040.50;5050551;28;20509;-47
2023/09/14 03:48:53;;;;;;;7.05;2.30;;;;;;;13.59;100.00;101042.84;5047818;28;20438;-45
2023/09/14 03:51:20;;;;;;;8.57;1.48;;;;;;;13.58;100.00;101048.78;5047928;28;20508;-45
2023/09/14 03:53:46;;;;;;;8.93;1.60;;;;;;;13.56;100.00;101043.53;5052761;28;20041;-44
2023/09/14 03:56:14;;;;;;;4.50;1.33;;;;;;;13.54;100.00;101057.00;5049393;28;20049;-45
2023/09/14 03:58:42;;;;;;;13.88;2.15;;;;;;;13.52;100.00;101053.78;5050958;28;20072;-44
2023/09/14 04:01:10;;;;;;;7.18;1.75;;;;;;;13.50;100.00;101042.22;5052016;28;20103;-45
2023/09/14 04:03:37;;;;;;;13.10;1.80;;;;;;;13.48;100.00;101044.53;5047351;28;20052;-45
2023/09/14 04:06:04;;;;;;;9.60;1.38;;;;;;;13.47;100.00;101045.72;5053796;28;20518;-45
2023/09/14 04:08:31;;;;;;;11.70;1.80;;;;;;;13.45;100.00;101045.22;5048073;28;20041;-46
2023/09/14 04:11:01;;;;;;;7.55;1.23;;;;;;;13.43;100.00;101039.22;5052622;28;20131;-45
2023/09/14 04:13:33;;;;;;;12.68;1.98;;;;;;;13.43;100.00;101050.34;5049719;28;20056;-44
2023/09/14 04:16:04;;;;;;;16.85;3.90;;;;;;;13.40;100.00;101045.50;5052947;28;20402;-45
2023/09/14 04:18:38;;;;;;;11.23;4.25;;;;;;;13.39;100.00;101050.28;5051304;28;20040;-44
2023/09/14 04:21:06;;;;;;;9.50;1.67;;;;;;;13.36;100.00;101045.44;5049072;28;20056;-45
2023/09/14 04:23:33;;;;;;;9.88;1.63;;;;;;;13.35;100.00;101034.63;5049111;28;20045;-45
2023/09/14 04:26:00;;;;;;;6.00;1.38;;;;;;;13.33;100.00;101051.69;5042541;28;20636;-50
2023/09/14 04:28:27;;;;;;;16.77;3.55;;;;;;;13.31;100.00;101050.44;5044460;28;20037;-44
2023/09/14 04:30:58;;;;;;;6.85;1.65;;;;;;;13.29;100.00;101061.13;5052562;28;20426;-45
2023/09/14 04:33:25;;;;;;;17.75;2.78;;;;;;;13.27;100.00;101055.91;5047403;28;20142;-45
2023/09/14 04:35:59;;;;;;;13.88;2.70;;;;;;;13.25;100.00;101049.06;5039321;28;20567;-44
2023/09/14 04:38:26;;;;;;;15.82;4.05;;;;;;;13.24;100.00;101058.56;5055856;28;20050;-46
2023/09/14 04:40:52;;;;;;;12.75;1.98;;;;;;;13.20;100.00;101052.13;5047802;28;20537;-44
2023/09/14 04:43:24;;;;;;;9.43;1.75;;;;;;;13.18;100.00;101046.09;5051325;28;20091;-44
2023/09/14 04:45:51;;;;;;;7.65;1.70;;;;;;;13.17;100.00;101052.81;5050281;28;20149;-45
2023/09/14 04:48:17;;;;;;;8.93;1.83;;;;;;;13.15;100.00;101055.16;5044964;28;20047;-45
2023/09/14 04:50:44;;;;;;;10.80;2.10;;;;;;;13.12;100.00;101045.56;5051900;28;20060;-44
2023/09/14 04:53:11;;;;;;;8.50;2.70;;;;;;;13.11;100.00;101057.00;5052739;28;20091;-46
2023/09/14 04:55:37;;;;;;;10.88;1.90;;;;;;;13.09;100.00;101057.38;5052779;28;20064;-44
2023/09/14 04:58:06;;;;;;;13.02;2.42;;;;;;;13.08;100.00;101057.75;5052715;28;20037;-44
2023/09/14 05:00:33;;;;;;;9.98;2.67;;;;;;;13.06;100.00;101062.78;5050834;28;20110;-45
2023/09/14 05:03:04;;;;;;;7.97;1.70;;;;;;;13.05;100.00;101061.19;5041654;28;20081;-47
2023/09/14 05:05:32;;;;;;;9.38;1.77;;;;;;;13.03;100.00;101052.38;5043351;28;20140;-49
2023/09/14 05:07:59;;;;;;;13.63;2.30;;;;;;;13.03;100.00;101058.75;5043085;28;20040;-44
2023/09/14 05:10:27;;;;;;;15.27;1.92;;;;;;;13.01;100.00;101054.72;5051098;28;20126;-45
2023/09/14 05:12:54;;;;;;;10.80;1.73;;;;;;;13.02;100.00;101061.91;5053923;28;20060;-45
2023/09/14 05:15:21;;;;;;;7.68;1.88;;;;;;;12.99;100.00;101057.84;5051736;28;20128;-47
2023/09/14 05:17:48;;;;;;;13.18;2.28;;;;;;;12.98;100.00;101069.31;5052486;28;20069;-45
2023/09/14 05:20:15;;;;;;;14.25;2.10;;;;;;;12.97;100.00;101053.81;5053178;28;20056;-45
2023/09/14 05:22:42;;;;;;;12.07;1.42;;;;;;;12.97;100.00;101062.16;5050493;28;20098;-45
2023/09/14 05:25:09;;;;;;;17.25;1.90;;;;;;;12.95;100.00;101068.06;5051126;28;20044;-45
2023/09/14 05:27:37;;;;;;;11.00;2.08;;;;;;;12.95;100.00;101056.13;5053213;28;20080;-46
2023/09/14 05:30:09;;;;;;;10.18;2.00;;;;;;;12.95;100.00;101067.22;5051103;28;20041;-45
2023/09/14 05:32:37;;;;;;;12.88;2.50;;;;;;;12.95;100.00;101058.91;5051959;28;20045;-44
2023/09/14 05:35:06;;;;;;;15.30;2.70;;;;;;;12.94;100.00;101071.19;5041187;28;20052;-44
2023/09/14 05:37:33;;;;;;;14.52;1.80;;;;;;;12.94;100.00;101071.19;5050438;28;20100;-45
2023/09/14 05:40:00;;;;;;;11.32;2.20;;;;;;;12.94;100.00;101073.97;5052157;28;20087;-45
2023/09/14 05:42:30;;;;;;;9.23;1.98;;;;;;;12.92;100.00;101073.53;5048502;28;20053;-46
2023/09/14 05:44:57;;;;;;;11.27;1.80;;;;;;;12.93;100.00;101075.13;5053218;28;20091;-45
2023/09/14 05:47:24;;;;;;;12.35;2.05;;;;;;;12.91;100.00;101061.59;5041732;28;20068;-44
2023/09/14 05:49:51;;;;;;;7.40;1.73;;;;;;;12.92;100.00;101065.19;5036836;28;20049;-47
2023/09/14 05:52:18;;;;;;;9.40;2.05;;;;;;;12.91;100.00;101071.91;5035507;28;20454;-45
2023/09/14 05:54:45;;;;;;;11.60;2.47;;;;;;;12.90;100.00;101071.09;5043801;28;20140;-44
2023/09/14 05:57:13;;;;;;;8.32;2.85;;;;;;;12.89;100.00;101080.59;5051178;28;20040;-46
2023/09/14 05:59:40;;;;;;;8.63;2.97;;;;;;;12.88;100.00;101078.16;5044223;28;20564;-45
2023/09/14 06:02:08;;;;;;;9.77;1.42;;;;;;;12.87;100.00;101082.13;5050220;28;20052;-44
2023/09/14 06:04:35;;;;;;;10.32;1.65;;;;;;;12.84;100.00;101081.63;5046759;28;20055;-45
2023/09/14 06:07:02;;;;;;;8.10;1.55;;;;;;;12.84;100.00;101086.38;5043998;28;20052;-44
2023/09/14 06:09:32;;;;;;;8.82;2.50;;;;;;;12.83;100.00;101088.38;5051412;28;20052;-45
2023/09/14 06:12:01;;;;;;;9.75;2.22;;;;;;;12.83;100.00;101088.38;5049895;28;20067;-46
2023/09/14 06:14:27;;;;;;;4.63;1.50;;;;;;;12.83;100.00;101096.72;5042087;28;20049;-45
2023/09/14 06:16:54;;;;;;;9.82;1.80;;;;;;;12.83;100.00;101102.25;5047657;28;20178;-44
2023/09/14 06:19:22;;;;;;;7.20;1.48;;;;;;;12.84;100.00;101094.72;5049538;28;20068;-45
2023/09/14 06:21:50;;;;;;;10.88;2.20;;;;;;;12.86;100.00;101088.81;5057076;28;20132;-44
2023/09/14 06:24:20;;;;;;;5.25;1.52;;;;;;;12.88;100.00;101100.38;5050147;28;20187;-44
2023/09/14 06:26:47;;;;;;;10.18;2.80;;;;;;;12.90;100.00;101092.50;5052039;28;20041;-46
2023/09/14 06:29:16;;;;;;;8.23;2.50;;;;;;;12.93;100.00;101100.13;5042472;28;20041;-44
2023/09/14 06:31:46;;;;;;;3.20;1.35;;;;;;;12.97;100.00;101101.06;5042880;28;20057;-45
2023/09/14 06:34:12;;;;;;;10.60;1.95;;;;;;;13.03;100.00;101110.75;5046312;28;20068;-45
2023/09/14 06:36:39;;;;;;;9.38;2.15;;;;;;;13.09;100.00;101112.16;5051035;28;20049;-46
2023/09/14 06:39:07;;;;;;;7.75;1.50;;;;;;;13.14;100.00;101120.25;5057525;28;20053;-44
2023/09/14 06:41:33;;;;;;;8.75;1.75;;;;;;;13.20;100.00;101125.22;5051401;28;20044;-45
2023/09/14 06:44:00;;;;;;;9.00;1.98;;;;;;;13.25;100.00;101130.53;5048360;28;20076;-44
2023/09/14 06:46:27;;;;;;;11.23;1.88;;;;;;;13.29;100.00;101130.63;5051721;28;20102;-45
2023/09/14 06:48:54;;;;;;;10.82;1.98;;;;;;;13.31;100.00;101129.13;5051584;28;20135;-46
2023/09/14 06:51:21;;;;;;;7.32;1.70;;;;;;;13.32;100.00;101133.50;5050379;28;20040;-45
2023/09/14 06:53:48;;;;;;;14.38;3.67;;;;;;;13.36;100.00;101139.16;5049474;28;20135;-45
2023/09/14 06:56:15;;;;;;;8.05;2.33;;;;;;;13.37;100.00;101140.75;5051210;28;20478;-44
2023/09/14 06:58:43;;;;;;;7.22;2.00;;;;;;;13.40;100.00;101131.72;5051546;28;20088;-44
2023/09/14 07:01:09;;;;;;;13.05;2.45;;;;;;;13.43;100.00;101145.72;5050991;28;20057;-46
2023/09/14 07:03:36;;;;;;;17.30;2.20;;;;;;;13.46;100.00;101147.00;5044605;28;20566;-46
2023/09/14 07:06:03;;;;;;;10.15;2.40;;;;;;;13.52;100.00;101130.84;5065962;28;20498;-45
2023/09/14 07:08:30;;;;;;;6.53;1.30;;;;;;;13.59;100.00;101145.78;5050881;28;20080;-45
2023/09/14 07:10:57;;;;;;;9.40;1.92;;;;;;;13.69;100.00;101153.59;5051369;28;20513;-44
2023/09/14 07:13:24;;;;;;;13.40;2.10;;;;;;;13.79;100.00;101150.28;5050446;28;20132;-45
2023/09/14 07:15:51;;;;;;;6.85;2.08;;;;;;;13.91;100.00;101158.56;5050044;28;20072;-45
2023/09/14 07:18:27;;;;;;;8.13;2.17;;;;;;;14.03;100.00;101152.91;5049470;28;20482;-45
2023/09/14 07:20:56;;;;;;;15.63;3.65;;;;;;;14.15;100.00;101159.56;5048890;28;20739;-46
2023/09/14 07:23:23;;;;;;;12.45;2.22;;;;;;;14.22;100.00;101154.97;5044766;28;20037;-45
2023/09/14 07:25:50;;;;;;;13.25;2.95;;;;;;;14.30;100.00;101167.09;5048671;28;20045;-45
2023/09/14 07:28:18;;;;;;;7.68;1.90;;;;;;;14.36;100.00;101160.94;5049349;28;20499;-45
2023/09/14 07:30:46;;;;;;;13.02;2.63;;;;;;;14.43;100.00;101161.09;5050289;28;20076;-47
2023/09/14 07:33:14;;;;;;;10.63;2.08;;;;;;;14.49;100.00;101164.44;5049291;28;20103;-47
2023/09/14 07:35:42;;;;;;;9.70;2.22;;;;;;;14.54;100.00;101158.59;5050467;28;20098;-45
2023/09/14 07:38:10;;;;;;;11.57;2.35;;;;;;;14.56;100.00;101159.06;5050687;28;20049;-44
2023/09/14 07:40:37;;;;;;;14.65;2.03;;;;;;;14.60;100.00;101162.72;5048389;28;20037;-45
2023/09/14 07:43:04;;;;;;;13.77;4.57;;;;;;;14.62;100.00;101157.59;5050858;28;20049;-45
2023/09/14 07:45:34;;;;;;;8.57;1.88;;;;;;;14.64;100.00;101166.38;5050994;28;20072;-49
2023/09/14 07:48:04;;;;;;;8.07;1.52;;;;;;;14.68;100.00;101166.47;5050859;28;20060;-44
2023/09/14 07:50:39;;;;;;;10.38;2.63;;;;;;;14.73;100.00;101168.97;5049720;28;20041;-48
2023/09/14 07:53:07;;;;;;;7.25;1.27;;;;;;;14.76;100.00;101168.25;5050729;28;20445;-46
2023/09/14 07:55:35;;;;;;;8.88;1.48;;;;;;;14.79;100.00;101171.13;5050813;28;20048;-46
2023/09/14 07:58:02;;;;;;;7.25;1.60;;;;;;;14.81;100.00;101177.16;5050660;28;20128;-45
2023/09/14 08:00:29;;;;;;;7.90;2.88;;;;;;;14.84;100.00;101179.22;5050745;28;20060;-45
2023/09/14 08:02:56;;;;;;;7.95;1.77;;;;;;;14.85;100.00;101178.03;5049905;28;20064;-48
2023/09/14 08:05:23;;;;;;;3.35;1.30;;;;;;;14.87;100.00;101175.69;5050335;28;20037;-45
2023/09/14 08:07:50;;;;;;;6.82;1.52;;;;;;;14.93;100.00;101171.44;5049431;28;20072;-46
2023/09/14 08:10:17;;;;;;;7.70;1.42;;;;;;;14.98;100.00;101171.19;5050092;28;20063;-45
2023/09/14 08:12:44;;;;;;;5.35;1.02;;;;;;;15.03;100.00;101175.66;5050457;28;20083;-46
2023/09/14 08:15:11;;;;;;;6.80;1.15;;;;;;;15.07;100.00;101174.56;5050631;28;20045;-48
2023/09/14 08:17:38;;;;;;;5.72;1.13;;;;;;;15.09;100.00;101174.97;5049807;28;20047;-45
2023/09/14 08:20:05;;;;;;;11.20;1.33;;;;;;;15.10;100.00;101175.81;5050871;28;20144;-46
2023/09/14 08:22:32;;;;;;;3.15;1.38;;;;;;;15.13;100.00;101181.47;5042186;28;20495;-47
2023/09/14 08:25:00;;;;;;;10.50;1.65;;;;;;;15.14;99.89;101169.13;5048935;28;20182;-45
2023/09/14 08:27:28;;;;;;;8.82;1.98;;;;;;;15.13;99.65;101177.88;5050491;28;20040;-45
2023/09/14 08:29:55;;;;;;;8.35;2.05;;;;;;;15.12;99.57;101170.66;5049445;28;20037;-46
2023/09/14 08:32:23;;;;;;;5.30;1.23;;;;;;;15.11;99.48;101169.88;5050236;28;20057;-46
2023/09/14 08:34:50;;;;;;;5.40;1.13;;;;;;;15.13;99.58;101173.09;5048983;28;20045;-46
2023/09/14 08:37:17;;;;;;;9.82;1.42;;;;;;;15.19;100.00;101176.41;5052552;28;20513;-47
2023/09/14 08:39:44;;;;;;;6.85;1.50;;;;;;;15.26;100.00;101165.38;5052397;28;20052;-46
2023/09/14 08:42:13;;;;;;;10.68;2.13;;;;;;;15.35;100.00;101167.97;5051501;28;20056;-45
2023/09/14 08:44:43;;;;;;;9.13;1.65;;;;;;;15.43;100.00;101176.13;5053952;28;20084;-49
2023/09/14 08:47:13;;;;;;;4.43;1.25;;;;;;;15.51;100.00;101172.34;5053347;28;20136;-46
2023/09/14 08:49:42;;;;;;;4.38;1.20;;;;;;;15.63;100.00;101188.09;5040392;28;20494;-46
2023/09/14 08:52:12;;;;;;;6.85;1.25;;;;;;;15.79;100.00;101183.25;5053607;28;20048;-47
2023/09/14 08:54:39;;;;;;;6.93;1.75;;;;;;;15.98;100.00;101186.00;5062673;28;20486;-46
2023/09/14 08:57:07;;;;;;;5.18;1.10;;;;;;;16.24;100.00;101182.47;5052350;28;20047;-46
2023/09/14 08:59:35;;;;;;;6.50;1.13;;;;;;;16.45;99.95;101194.81;5053928;28;20041;-48
2023/09/14 09:02:04;;;;;;;7.30;1.08;;;;;;;16.72;99.45;101187.28;5053246;28;20048;-45
2023/09/14 09:04:31;;;;;;;1.92;1.00;;;;;;;17.32;98.12;101188.13;5043130;28;20069;-46
2023/09/14 09:06:58;;;;;;;6.07;1.63;;;;;;;18.04;95.65;101201.81;5049762;28;20044;-49
2023/09/14 09:09:29;;;;;;;5.00;1.08;;;;;;;18.79;91.23;101188.09;5044876;28;20056;-46
2023/09/14 09:11:55;;;;;;;2.70;0.82;;;;;;;19.04;89.90;101193.84;5054599;28;20065;-49
2023/09/14 09:14:23;;;;;;;12.02;1.25;;;;;;;19.77;86.58;101192.63;5053072;28;20501;-46
2023/09/14 09:16:50;;;;;;;9.52;1.20;;;;;;;20.49;82.97;101200.00;5051607;28;20399;-47
2023/09/14 09:19:17;;;;;;;3.90;1.00;;;;;;;20.88;80.68;101200.78;5053709;28;20071;-50
2023/09/14 09:21:46;;;;;;;7.60;1.10;;;;;;;21.72;78.10;101199.72;5051684;28;20091;-46
2023/09/14 09:24:25;;;;;;;4.70;0.93;;;;;;;22.02;78.05;101204.84;5052186;28;20447;-44
2023/09/14 09:26:52;;;;;;;4.63;0.85;;;;;;;22.55;72.79;101206.47;5040543;28;20486;-47
2023/09/14 09:29:22;;;;;;;5.07;1.58;;;;;;;22.62;69.97;101217.69;5052959;28;20055;-43
2023/09/14 09:31:50;;;;;;;2.92;0.88;;;;;;;22.26;69.91;101217.16;5052852;28;20047;-45
2023/09/14 09:34:31;;;;;;;7.47;1.00;;;;;;;22.43;69.69;101219.84;5052653;28;20095;-43
2023/09/14 09:36:59;;;;;;;5.95;0.80;;;;;;;22.46;67.83;101223.88;5052644;28;20067;-43
2023/09/14 09:39:26;;;;;;;6.05;1.25;;;;;;;22.72;65.51;101219.66;5051600;28;20132;-44
2023/09/14 09:41:53;;;;;;;7.60;1.45;;;;;;;22.31;64.82;101219.56;5051604;28;20472;-43
2023/09/14 09:44:23;;;;;;;5.50;1.00;;;;;;;21.88;65.00;101212.56;5052697;28;20380;-43
2023/09/14 09:46:50;;;;;;;5.40;1.00;;;;;;;21.67;64.84;101214.25;5051505;28;20392;-44
2023/09/14 09:49:19;;;;;;;6.15;1.55;;;;;;;21.31;64.63;101211.97;5052007;28;20084;-43
2023/09/14 09:51:48;;;;;;;3.38;0.98;;;;;;;21.16;66.10;101212.00;5050551;28;20040;-46
2023/09/14 09:54:24;;;;;;;5.78;1.00;;;;;;;22.12;64.30;101218.06;5052488;28;20048;-43
2023/09/14 09:56:51;;;;;;;3.58;1.17;;;;;;;22.43;62.12;101211.38;5050519;28;20052;-45
2023/09/14 09:59:18;;;;;;;5.35;2.60;;;;;;;22.48;62.48;101217.81;5051953;28;20129;-44
2023/09/14 10:01:47;;;;;;;5.32;0.90;;;;;;;22.94;61.30;101215.41;5051714;28;20057;-44
2023/09/14 10:04:17;;;;;;;8.02;1.75;;;;;;;23.50;59.59;101205.56;5039884;28;20041;-45
2023/09/14 10:06:52;;;;;;;6.93;2.30;;;;;;;23.71;59.00;101199.63;5050260;28;20144;-44
2023/09/14 10:09:19;;;;;;;6.07;1.25;;;;;;;23.55;58.51;101202.25;5050132;28;20049;-45
2023/09/14 10:11:49;;;;;;;3.72;1.17;;;;;;;23.86;57.69;101200.22;5051869;28;20072;-44
2023/09/14 10:14:20;;;;;;;5.97;1.13;;;;;;;24.25;56.50;101202.53;5052650;28;20053;-46
2023/09/14 10:16:50;;;;;;;6.47;1.10;;;;;;;24.49;55.17;101209.84;5050112;28;20143;-45
2023/09/14 10:19:20;;;;;;;3.72;1.20;;;;;;;24.33;55.53;101195.53;5052673;28;20052;-43
2023/09/14 10:21:52;;;;;;;6.35;1.17;;;;;;;23.79;55.56;101197.50;5051819;28;20538;-44
2023/09/14 10:24:20;;;;;;;5.18;1.42;;;;;;;22.81;56.54;101194.56;5051901;28;20037;-44
2023/09/14 10:26:49;;;;;;;5.28;1.10;;;;;;;21.95;58.68;101196.41;5051293;28;20054;-43
2023/09/14 10:29:18;;;;;;;5.05;1.20;;;;;;;21.85;58.22;101188.78;5051721;28;20083;-49
2023/09/14 10:31:48;;;;;;;3.70;0.98;;;;;;;21.54;58.87;101196.19;5051886;28;20494;-46
2023/09/14 10:34:16;;;;;;;5.00;0.88;;;;;;;21.51;58.33;101199.00;5050577;28;20056;-44
2023/09/14 10:36:45;;;;;;;4.35;1.10;;;;;;;21.46;58.26;101200.25;5051227;28;20036;-44
2023/09/14 10:39:12;;;;;;;3.35;1.02;;;;;;;21.55;58.24;101200.59;5051276;28;20036;-45
2023/09/14 10:41:39;;;;;;;4.47;1.13;;;;;;;21.58;57.70;101204.59;5052063;28;20095;-43
2023/09/14 10:44:07;;;;;;;6.70;1.55;;;;;;;21.39;58.03;101193.84;5051265;28;20118;-44
2023/09/14 10:46:41;;;;;;;5.32;1.17;;;;;;;21.30;58.02;101194.28;5051132;28;20041;-43
2023/09/14 10:49:09;;;;;;;2.10;0.88;;;;;;;21.09;57.84;101186.69;5047804;28;20065;-45
2023/09/14 10:51:36;;;;;;;4.65;0.95;;;;;;;20.83;58.37;101177.88;5052096;28;20754;-44
2023/09/14 10:54:03;;;;;;;6.78;1.85;;;;;;;20.55;58.93;101181.50;5050969;28;20536;-43
2023/09/14 10:56:31;;;;;;;2.20;0.90;;;;;;;20.33;59.21;101174.28;5050610;28;20056;-44
2023/09/14 10:59:05;;;;;;;4.50;1.40;;;;;;;20.07;60.05;101171.81;5050394;28;20791;-44
2023/09/14 11:01:32;;;;;;;7.65;1.10;;;;;;;19.81;60.68;101175.75;5050940;28;20052;-44
2023/09/14 11:04:19;;;;;;;3.78;1.73;;;;;;;19.43;61.04;101174.44;5051406;28;20665;-44
2023/09/14 11:06:48;;;;;;;4.45;1.02;;;;;;;19.20;62.22;101176.69;5050018;28;20403;-44
2023/09/14 11:09:18;;;;;;;4.47;1.27;;;;;;;19.08;63.31;101168.63;5051811;28;20102;-45
2023/09/14 11:11:48;;;;;;;3.55;0.80;;;;;;;19.00;63.27;101172.59;5049068;28;20499;-45
2023/09/14 11:14:17;;;;;;;3.70;1.30;;;;;;;18.91;63.75;101172.13;5050619;28;20052;-44
2023/09/14 11:17:00;;;;;;;4.13;1.45;;;;;;;18.85;64.01;101169.69;5051023;28;20048;-46
2023/09/14 11:19:31;;;;;;;4.07;1.27;;;;;;;18.89;64.26;101158.50;5051169;28;20047;-46
2023/09/14 11:22:23;;;;;;;3.60;0.90;;;;;;;18.92;64.17;101173.72;5050947;28;20045;-44